Time;durP1;ratioP1;P1;durP2;ratioP2;P2;SDS_P1;SDS_P2;PMS_P1;PMS_P2;Temp;Humidity;BMP_temperature;BMP_pressure;BME280_temperature;BME280_humidity;BME280_pressure;Samples;Min_cycle;Max_cycle;Signal;HPM_P1;HPM_P2
2023/05/30 00:01:32;;;;;;;0.97;0.83;;;21.10;98.00;;;;;;1889094;75;25669;-60
2023/05/30 00:04:22;;;;;;;0.97;0.80;;;21.10;98.00;;;;;;1895202;75;25262;-61
2023/05/30 00:07:11;;;;;;;0.73;0.73;;;21.10;98.00;;;;;;1895809;75;25271;-60
2023/05/30 00:10:00;;;;;;;0.80;0.80;;;21.10;98.00;;;;;;1902321;75;25228;-58
2023/05/30 00:12:49;;;;;;;1.27;0.90;;;21.10;98.00;;;;;;1911042;75;25216;-61
2023/05/30 00:15:37;;;;;;;0.80;0.80;;;21.10;98.00;;;;;;1898502;75;25191;-60
2023/05/30 00:18:34;;;;;;;1.17;0.87;;;21.10;98.00;;;;;;1884932;75;25219;-60
2023/05/30 00:21:17;;;;;;;1.00;0.90;;;21.00;97.90;;;;;;1895344;73;25624;-59
2023/05/30 00:24:07;;;;;;;0.70;0.70;;;21.00;98.00;;;;;;1888160;75;26349;-60
2023/05/30 00:26:56;;;;;;;0.80;0.80;;;21.10;98.00;;;;;;1891354;75;25627;-60
2023/05/30 00:32:23;;;;;;;0.93;0.90;;;21.10;98.00;;;;;;1939303;72;27089;-57
2023/05/30 00:35:12;;;;;;;1.00;1.00;;;21.00;98.00;;;;;;1920724;73;25289;-58
2023/05/30 00:38:00;;;;;;;0.70;0.70;;;21.00;98.00;;;;;;1862702;76;25154;-61
2023/05/30 00:40:49;;;;;;;0.70;0.70;;;21.00;97.90;;;;;;1919328;73;25547;-58
2023/05/30 00:43:37;;;;;;;1.43;0.83;;;21.00;97.90;;;;;;1895529;73;26072;-60
2023/05/30 00:46:29;;;;;;;0.70;0.70;;;21.00;97.90;;;;;;1901339;74;25224;-61
2023/05/30 00:49:16;;;;;;;0.70;0.70;;;21.00;97.90;;;;;;1897962;74;25248;-58
2023/05/30 00:52:06;;;;;;;0.80;0.70;;;21.00;97.90;;;;;;1904101;74;25223;-61
2023/05/30 00:54:55;;;;;;;0.63;0.63;;;21.00;97.90;;;;;;1892780;74;25170;-61
2023/05/30 00:57:46;;;;;;;1.13;0.90;;;21.00;97.90;;;;;;1885876;74;25286;-58
2023/05/30 01:00:38;;;;;;;0.90;0.90;;;21.00;97.90;;;;;;1913979;74;25643;-61
2023/05/30 01:03:32;;;;;;;0.60;0.60;;;21.00;97.90;;;;;;1905422;74;25232;-57
2023/05/30 01:06:21;;;;;;;0.77;0.77;;;21.00;97.80;;;;;;1911815;74;25203;-58
2023/05/30 01:09:10;;;;;;;0.80;0.70;;;21.00;97.90;;;;;;1890152;74;25168;-60
2023/05/30 01:12:03;;;;;;;0.80;0.80;;;21.00;97.80;;;;;;1889496;74;25903;-60
2023/05/30 01:17:33;;;;;;;0.80;0.80;;;21.00;97.80;;;;;;1900321;74;27091;-58
2023/05/30 01:23:13;;;;;;;0.83;0.80;;;21.00;97.80;;;;;;1897141;74;27196;-58
2023/05/30 01:26:11;;;;;;;1.13;0.80;;;21.00;97.80;;;;;;1853713;76;25304;-58
2023/05/30 01:29:02;;;;;;;0.80;0.80;;;21.00;97.80;;;;;;1854621;76;25375;-58
2023/05/30 01:31:50;;;;;;;0.80;0.80;;;21.00;97.80;;;;;;1860258;76;25240;-59
2023/05/30 01:34:39;;;;;;;0.90;0.90;;;21.00;97.80;;;;;;1853464;76;25245;-58
2023/05/30 01:37:28;;;;;;;0.80;0.80;;;21.00;97.80;;;;;;1854013;76;25247;-59
2023/05/30 01:40:19;;;;;;;0.80;0.80;;;21.00;97.80;;;;;;1857334;76;26058;-58
2023/05/30 01:43:10;;;;;;;1.20;1.00;;;21.00;97.80;;;;;;1868260;75;25686;-58
2023/05/30 01:46:01;;;;;;;0.63;0.63;;;21.00;97.80;;;;;;1881485;75;26006;-58
2023/05/30 01:51:37;;;;;;;0.70;0.70;;;21.00;97.80;;;;;;1929067;72;27681;-58
2023/05/30 01:57:08;;;;;;;0.90;0.90;;;21.00;97.80;;;;;;1941681;72;27527;-58
2023/05/30 01:59:59;;;;;;;0.90;0.90;;;21.00;97.80;;;;;;1919545;73;25197;-60
2023/05/30 02:02:48;;;;;;;0.80;0.80;;;21.00;97.80;;;;;;1926974;73;25287;-58
2023/05/30 02:08:15;;;;;;;0.80;0.80;;;21.00;97.70;;;;;;1928334;72;27153;-56
2023/05/30 02:11:05;;;;;;;0.70;0.70;;;21.00;97.70;;;;;;1902268;75;25541;-59
2023/05/30 02:13:54;;;;;;;1.13;1.00;;;21.00;97.70;;;;;;1892395;75;25225;-61
2023/05/30 02:16:42;;;;;;;0.70;0.70;;;21.00;97.70;;;;;;1907788;75;25749;-59
2023/05/30 02:19:30;;;;;;;0.83;0.83;;;21.00;97.60;;;;;;1881425;73;25254;-58
2023/05/30 02:22:20;;;;;;;0.70;0.70;;;21.00;97.60;;;;;;1882547;74;25796;-60
2023/05/30 02:25:10;;;;;;;0.80;0.80;;;21.00;97.70;;;;;;1882493;75;25278;-58
2023/05/30 02:27:58;;;;;;;0.60;0.60;;;21.00;97.70;;;;;;1882835;75;25219;-61
2023/05/30 02:30:47;;;;;;;0.70;0.70;;;21.00;97.60;;;;;;1892233;75;25597;-60
2023/05/30 02:33:35;;;;;;;0.50;0.50;;;21.00;97.60;;;;;;1891206;75;25233;-60
2023/05/30 02:39:06;;;;;;;0.80;0.80;;;21.00;97.60;;;;;;1933432;72;27086;-59
2023/05/30 02:44:32;;;;;;;0.60;0.60;;;21.00;97.60;;;;;;1913121;74;28065;-58
2023/05/30 02:50:00;;;;;;;0.70;0.70;;;21.00;97.60;;;;;;1903249;73;27060;-59
2023/05/30 02:52:49;;;;;;;0.80;0.80;;;21.00;97.50;;;;;;1874115;76;25225;-60
2023/05/30 02:55:42;;;;;;;0.60;0.60;;;21.00;97.50;;;;;;1869283;75;25238;-60
2023/05/30 02:58:27;;;;;;;0.90;0.90;;;21.00;97.50;;;;;;1879372;75;25356;-58
2023/05/30 03:01:16;;;;;;;0.80;0.80;;;21.00;97.50;;;;;;1881395;75;25187;-57
2023/05/30 03:04:05;;;;;;;1.10;0.90;;;21.00;97.40;;;;;;1874531;76;25174;-58
2023/05/30 03:06:53;;;;;;;0.50;0.50;;;21.00;97.40;;;;;;1880815;76;25159;-57
2023/05/30 03:09:42;;;;;;;0.70;0.70;;;21.10;97.40;;;;;;1877393;76;25214;-58
2023/05/30 03:12:31;;;;;;;0.80;0.80;;;21.10;97.50;;;;;;1873969;76;25236;-57
2023/05/30 03:15:21;;;;;;;0.80;0.80;;;21.10;97.40;;;;;;1874728;76;26013;-60
2023/05/30 03:20:47;;;;;;;0.80;0.80;;;21.10;97.40;;;;;;1926804;72;27085;-58
2023/05/30 03:23:35;;;;;;;0.60;0.60;;;21.10;97.40;;;;;;1883613;75;26047;-60
2023/05/30 03:26:25;;;;;;;0.70;0.70;;;21.10;97.30;;;;;;1878702;75;25167;-59
2023/05/30 03:29:14;;;;;;;0.60;0.60;;;21.10;97.30;;;;;;1903182;75;25172;-59
2023/05/30 03:32:03;;;;;;;0.70;0.70;;;21.20;97.30;;;;;;1880961;75;25166;-59
2023/05/30 03:34:52;;;;;;;0.60;0.60;;;21.20;97.30;;;;;;1908878;75;25252;-59
2023/05/30 03:37:41;;;;;;;0.73;0.70;;;21.20;97.30;;;;;;1879079;75;25237;-60
2023/05/30 03:40:30;;;;;;;0.67;0.67;;;21.20;97.30;;;;;;1882472;75;25171;-60
2023/05/30 03:43:18;;;;;;;0.83;0.70;;;21.20;97.30;;;;;;1860136;75;26531;-59
2023/05/30 03:46:07;;;;;;;0.80;0.50;;;21.20;97.40;;;;;;1860037;76;25346;-58
2023/05/30 03:51:35;;;;;;;0.70;0.70;;;21.20;97.20;;;;;;1916933;73;27171;-57
2023/05/30 03:56:51;;;;;;;0.77;0.70;;;21.30;97.20;;;;;;1921909;72;26444;-59
2023/05/30 03:59:39;;;;;;;0.80;0.80;;;21.30;97.30;;;;;;1891437;75;25629;-60
2023/05/30 04:02:28;;;;;;;0.70;0.70;;;21.30;97.00;;;;;;1880814;75;25769;-60
2023/05/30 04:05:17;;;;;;;0.40;0.40;;;21.30;97.00;;;;;;1881004;75;25278;-57
2023/05/30 04:08:07;;;;;;;0.50;0.50;;;21.30;97.00;;;;;;1887348;75;25225;-60
2023/05/30 04:10:56;;;;;;;0.80;0.80;;;21.30;97.00;;;;;;1901950;75;25206;-60
2023/05/30 04:13:44;;;;;;;0.70;0.70;;;21.40;97.00;;;;;;1907038;75;25141;-60
2023/05/30 04:16:32;;;;;;;0.70;0.70;;;21.30;97.00;;;;;;1887414;75;25199;-61
2023/05/30 04:19:21;;;;;;;1.57;0.80;;;21.40;97.10;;;;;;1848366;76;25195;-60
2023/05/30 04:22:10;;;;;;;0.80;0.80;;;21.40;97.20;;;;;;1894988;75;25133;-59
2023/05/30 04:24:58;;;;;;;0.60;0.60;;;21.40;97.10;;;;;;1886700;75;25547;-60
2023/05/30 04:27:48;;;;;;;0.60;0.60;;;21.40;97.10;;;;;;1899862;75;25674;-60
2023/05/30 04:33:16;;;;;;;0.70;0.70;;;21.40;97.10;;;;;;1934689;72;27806;-59
2023/05/30 04:38:44;;;;;;;0.73;0.60;;;21.50;97.10;;;;;;1919033;74;27141;-58
2023/05/30 04:41:33;;;;;;;0.60;0.60;;;21.50;97.10;;;;;;1855338;76;25162;-59
2023/05/30 04:44:22;;;;;;;1.30;0.80;;;21.50;97.10;;;;;;1849773;77;25240;-61
2023/05/30 04:47:11;;;;;;;0.60;0.60;;;21.50;97.00;;;;;;1831127;76;25525;-61
2023/05/30 04:50:01;;;;;;;0.63;0.63;;;21.50;97.10;;;;;;1843910;76;25237;-59
2023/05/30 04:52:50;;;;;;;0.80;0.80;;;21.50;97.00;;;;;;1834059;77;25273;-61
2023/05/30 04:55:39;;;;;;;0.63;0.63;;;21.60;97.00;;;;;;1836913;77;25306;-60
2023/05/30 04:58:28;;;;;;;0.70;0.70;;;21.60;97.00;;;;;;1831512;77;25208;-60
2023/05/30 05:01:18;;;;;;;0.70;0.70;;;21.60;97.10;;;;;;1835003;76;25250;-60
2023/05/30 05:04:07;;;;;;;0.67;0.67;;;21.60;97.10;;;;;;1838533;77;25194;-60
2023/05/30 05:06:56;;;;;;;0.60;0.60;;;21.60;97.10;;;;;;1839866;77;25166;-59
2023/05/30 05:09:44;;;;;;;0.50;0.50;;;21.60;97.10;;;;;;1836309;77;25196;-60
2023/05/30 05:12:32;;;;;;;0.70;0.70;;;21.60;97.10;;;;;;1827834;77;25161;-60
2023/05/30 05:17:59;;;;;;;0.53;0.53;;;21.60;97.10;;;;;;1942488;72;27598;-59
2023/05/30 05:20:47;;;;;;;0.80;0.80;;;21.70;97.10;;;;;;1898931;75;25922;-58
2023/05/30 05:23:36;;;;;;;0.70;0.70;;;21.70;97.20;;;;;;1901387;75;25734;-60
2023/05/30 05:26:25;;;;;;;0.70;0.70;;;21.70;97.10;;;;;;1899253;74;26205;-59
2023/05/30 05:29:13;;;;;;;0.70;0.70;;;21.70;97.10;;;;;;1901322;74;25349;-59
2023/05/30 05:32:02;;;;;;;0.60;0.60;;;21.80;97.20;;;;;;1908994;73;25798;-61
2023/05/30 05:34:52;;;;;;;0.70;0.70;;;21.80;97.20;;;;;;1899851;75;25204;-60
2023/05/30 05:40:20;;;;;;;0.80;0.80;;;21.80;97.20;;;;;;1946898;72;27067;-59
2023/05/30 05:43:09;;;;;;;0.63;0.63;;;21.80;97.20;;;;;;1922580;73;25285;-60
2023/05/30 05:45:57;;;;;;;0.60;0.60;;;21.80;97.20;;;;;;1919661;73;26477;-60
2023/05/30 05:48:46;;;;;;;0.60;0.60;;;21.90;97.20;;;;;;1924424;73;25539;-60
2023/05/30 05:51:36;;;;;;;0.70;0.70;;;21.80;97.10;;;;;;1888043;75;25272;-59
2023/05/30 05:54:25;;;;;;;1.03;0.70;;;21.80;97.10;;;;;;1916009;73;25147;-61
2023/05/30 05:59:52;;;;;;;1.27;0.60;;;21.90;97.20;;;;;;1919271;74;28104;-58
2023/05/30 06:05:20;;;;;;;0.70;0.70;;;21.90;97.20;;;;;;1938745;72;27774;-59
2023/05/30 06:08:09;;;;;;;0.67;0.50;;;21.90;97.10;;;;;;1919772;73;26171;-60
2023/05/30 06:10:58;;;;;;;0.77;0.77;;;21.90;97.10;;;;;;1935285;73;25137;-61
2023/05/30 06:13:47;;;;;;;0.70;0.70;;;21.90;97.10;;;;;;1915798;73;25183;-60
2023/05/30 06:16:35;;;;;;;0.70;0.70;;;21.90;97.10;;;;;;1918369;73;25176;-60
2023/05/30 06:19:23;;;;;;;0.60;0.60;;;21.90;97.10;;;;;;1920929;73;25742;-60
2023/05/30 06:22:12;;;;;;;0.70;0.70;;;22.00;97.20;;;;;;1923385;73;25154;-60
2023/05/30 06:27:39;;;;;;;0.70;0.70;;;21.90;97.20;;;;;;1938669;72;28389;-58
2023/05/30 06:33:06;;;;;;;0.70;0.70;;;21.90;97.20;;;;;;1917422;74;28133;-59
2023/05/30 06:35:55;;;;;;;0.70;0.70;;;22.00;97.20;;;;;;1862577;76;25277;-60
2023/05/30 06:38:43;;;;;;;0.70;0.70;;;22.00;97.20;;;;;;1905844;75;25222;-60
2023/05/30 06:41:34;;;;;;;0.60;0.60;;;22.00;97.20;;;;;;1908585;75;25480;-60
2023/05/30 06:44:22;;;;;;;0.60;0.60;;;22.00;97.20;;;;;;1872110;76;25282;-60
2023/05/30 06:47:10;;;;;;;0.50;0.50;;;22.00;97.20;;;;;;1878096;76;25523;-58
2023/05/30 06:49:59;;;;;;;0.70;0.70;;;22.00;97.20;;;;;;1857787;76;25317;-60
2023/05/30 06:52:47;;;;;;;0.63;0.63;;;22.00;97.20;;;;;;1853141;76;25188;-60
2023/05/30 06:55:36;;;;;;;0.67;0.67;;;22.00;97.20;;;;;;1875123;76;26438;-60
2023/05/30 06:58:25;;;;;;;0.60;0.60;;;22.00;97.30;;;;;;1874339;76;25834;-60
2023/05/30 07:01:13;;;;;;;0.50;0.50;;;22.00;97.20;;;;;;1864840;76;25182;-60
2023/05/30 07:06:39;;;;;;;0.70;0.70;;;22.00;97.30;;;;;;1943736;72;27030;-57
2023/05/30 07:09:28;;;;;;;0.60;0.60;;;22.00;97.20;;;;;;1913446;73;25218;-61
2023/05/30 07:12:16;;;;;;;0.73;0.70;;;22.00;97.20;;;;;;1911420;74;25183;-60
2023/05/30 07:15:07;;;;;;;0.50;0.50;;;22.00;97.30;;;;;;1915908;73;25210;-61
2023/05/30 07:17:56;;;;;;;0.63;0.63;;;22.00;97.30;;;;;;1913276;75;25238;-60
2023/05/30 07:20:45;;;;;;;0.67;0.67;;;22.10;97.30;;;;;;1914799;73;25202;-60
2023/05/30 07:23:33;;;;;;;0.60;0.60;;;22.00;97.30;;;;;;1922865;73;25141;-60
2023/05/30 07:26:22;;;;;;;0.63;0.63;;;22.00;97.30;;;;;;1915098;73;25704;-61
2023/05/30 07:29:11;;;;;;;0.60;0.60;;;22.10;97.30;;;;;;1921361;73;25202;-61
2023/05/30 07:32:00;;;;;;;0.60;0.60;;;22.10;97.30;;;;;;1917236;73;25298;-60
2023/05/30 07:34:48;;;;;;;0.77;0.77;;;22.00;97.30;;;;;;1923277;73;25959;-60
2023/05/30 07:37:38;;;;;;;1.97;0.70;;;22.10;97.30;;;;;;1914683;74;25169;-61
2023/05/30 07:40:26;;;;;;;0.97;0.60;;;22.00;97.30;;;;;;1919012;73;25570;-61
2023/05/30 07:43:15;;;;;;;0.47;0.47;;;22.10;97.30;;;;;;1911851;74;25198;-60
2023/05/30 07:48:41;;;;;;;0.60;0.60;;;22.10;97.30;;;;;;1903349;74;28136;-59
2023/05/30 07:51:30;;;;;;;0.77;0.77;;;22.10;97.30;;;;;;1853862;76;25238;-59
2023/05/30 07:54:19;;;;;;;0.60;0.60;;;22.10;97.30;;;;;;1851975;76;25796;-58
2023/05/30 07:57:07;;;;;;;0.70;0.70;;;22.10;97.40;;;;;;1866136;76;25231;-61
2023/05/30 07:59:56;;;;;;;0.70;0.70;;;22.10;97.30;;;;;;1856743;76;25232;-60
2023/05/30 08:05:24;;;;;;;0.70;0.70;;;22.10;97.30;;;;;;1911438;74;27170;-59
2023/05/30 08:08:13;;;;;;;1.10;0.63;;;22.10;97.30;;;;;;1850639;76;26082;-61
2023/05/30 08:11:01;;;;;;;0.60;0.60;;;22.10;97.30;;;;;;1902062;75;25253;-60
2023/05/30 08:13:50;;;;;;;0.87;0.70;;;22.10;97.30;;;;;;1897483;75;25747;-60
2023/05/30 08:16:39;;;;;;;0.67;0.67;;;22.10;97.30;;;;;;1906448;75;25676;-60
2023/05/30 08:19:27;;;;;;;0.60;0.60;;;22.10;97.30;;;;;;1900651;75;25570;-60
2023/05/30 08:22:15;;;;;;;0.70;0.70;;;22.20;97.30;;;;;;1905232;75;25191;-60
2023/05/30 08:27:42;;;;;;;0.67;0.67;;;22.20;97.30;;;;;;1945711;72;28157;-59
2023/05/30 08:30:31;;;;;;;0.70;0.70;;;22.20;97.00;;;;;;1921030;72;25136;-61
2023/05/30 08:33:19;;;;;;;0.80;0.80;;;22.10;97.30;;;;;;1918237;72;25585;-61
2023/05/30 08:36:08;;;;;;;0.70;0.70;;;22.20;97.30;;;;;;1920665;73;25164;-61
2023/05/30 08:38:56;;;;;;;0.60;0.60;;;22.20;97.40;;;;;;1925661;72;25227;-61
2023/05/30 08:41:45;;;;;;;0.70;0.70;;;22.10;97.30;;;;;;1940105;72;25201;-61
2023/05/30 08:44:34;;;;;;;0.70;0.70;;;22.20;97.30;;;;;;1906488;73;25144;-60
2023/05/30 08:50:03;;;;;;;0.60;0.60;;;22.20;97.30;;;;;;1893390;74;27088;-59
2023/05/30 08:52:53;;;;;;;0.70;0.70;;;22.20;97.40;;;;;;1879624;76;25168;-61
2023/05/30 08:55:45;;;;;;;0.70;0.70;;;22.20;97.30;;;;;;1878836;76;25143;-61
2023/05/30 08:58:37;;;;;;;0.80;0.80;;;22.20;97.30;;;;;;1874445;76;25608;-61
2023/05/30 09:01:25;;;;;;;0.70;0.70;;;22.20;97.30;;;;;;1880782;75;25775;-60
2023/05/30 09:04:15;;;;;;;0.60;0.60;;;22.20;97.30;;;;;;1860110;76;25190;-60
2023/05/30 09:09:42;;;;;;;0.70;0.70;;;22.20;97.30;;;;;;1937458;72;27119;-59
2023/05/30 09:12:31;;;;;;;0.80;0.70;;;22.20;97.30;;;;;;1891183;75;25308;-59
2023/05/30 09:15:20;;;;;;;0.80;0.70;;;22.20;97.30;;;;;;1911337;73;25164;-60
2023/05/30 09:18:08;;;;;;;1.20;0.63;;;22.20;97.30;;;;;;1900769;75;25317;-60
2023/05/30 09:20:57;;;;;;;0.60;0.60;;;22.20;97.30;;;;;;1890208;75;25208;-60
2023/05/30 09:23:46;;;;;;;0.70;0.70;;;22.20;97.30;;;;;;1900817;73;25265;-60
2023/05/30 09:26:35;;;;;;;0.53;0.53;;;22.20;97.30;;;;;;1860169;75;25314;-60
2023/05/30 09:29:23;;;;;;;0.70;0.70;;;22.20;97.20;;;;;;1899540;73;26072;-60
2023/05/30 09:32:11;;;;;;;0.70;0.70;;;22.20;97.20;;;;;;1894288;73;25755;-61
2023/05/30 09:37:43;;;;;;;0.70;0.70;;;22.20;97.20;;;;;;1911657;73;27177;-59
2023/05/30 09:40:32;;;;;;;0.60;0.60;;;22.20;97.60;;;;;;1920857;73;25187;-60
2023/05/30 09:43:34;;;;;;;0.67;0.67;;;22.20;97.20;;;;;;1887900;74;25305;-59
2023/05/30 09:46:24;;;;;;;0.80;0.80;;;22.20;97.10;;;;;;1900537;74;25212;-60
2023/05/30 09:51:52;;;;;;;1.00;0.80;;;22.30;97.20;;;;;;1921426;72;28149;-59
2023/05/30 09:54:41;;;;;;;0.67;0.67;;;22.30;97.20;;;;;;1898266;74;25583;-60
2023/05/30 09:57:29;;;;;;;0.60;0.60;;;22.20;97.10;;;;;;1882431;73;25528;-61
2023/05/30 10:00:21;;;;;;;2.27;0.87;;;22.30;97.20;;;;;;1883870;75;25148;-59
2023/05/30 10:03:09;;;;;;;0.67;0.67;;;22.30;97.10;;;;;;1908059;73;25251;-61
2023/05/30 10:05:59;;;;;;;0.70;0.70;;;22.30;97.10;;;;;;1889101;73;25220;-60
2023/05/30 10:08:48;;;;;;;0.80;0.80;;;22.30;97.10;;;;;;1906605;75;25781;-60
2023/05/30 10:11:37;;;;;;;0.80;0.80;;;22.30;97.10;;;;;;1904677;73;25726;-59
2023/05/30 10:14:27;;;;;;;0.77;0.77;;;22.30;97.10;;;;;;1895260;73;25521;-61
2023/05/30 10:17:19;;;;;;;0.70;0.70;;;22.30;97.10;;;;;;1901549;73;25277;-61
2023/05/30 10:20:12;;;;;;;0.70;0.70;;;22.30;97.10;;;;;;1890223;74;25218;-60
2023/05/30 10:23:06;;;;;;;0.70;0.70;;;22.30;97.10;;;;;;1887374;75;25249;-59
2023/05/30 10:25:54;;;;;;;0.70;0.70;;;22.30;97.00;;;;;;1897313;75;25160;-61
2023/05/30 10:28:46;;;;;;;0.60;0.60;;;22.30;97.00;;;;;;1899516;73;25822;-61
2023/05/30 10:34:15;;;;;;;0.73;0.73;;;22.30;97.00;;;;;;1928323;72;28153;-58
2023/05/30 10:39:46;;;;;;;0.80;0.80;;;22.30;97.00;;;;;;1946650;72;27605;-59
2023/05/30 10:42:38;;;;;;;0.70;0.70;;;22.30;96.90;;;;;;1885958;75;25300;-59
2023/05/30 10:45:31;;;;;;;1.00;0.93;;;22.40;96.90;;;;;;1876348;76;25179;-59
2023/05/30 10:48:25;;;;;;;0.77;0.73;;;22.30;96.90;;;;;;1881909;75;25207;-60
2023/05/30 10:51:14;;;;;;;0.80;0.80;;;22.40;96.90;;;;;;1876268;75;25552;-59
2023/05/30 10:54:03;;;;;;;0.73;0.70;;;22.40;96.90;;;;;;1870266;74;25196;-59
2023/05/30 10:56:51;;;;;;;0.70;0.70;;;22.30;96.90;;;;;;1888525;75;25185;-59
2023/05/30 10:59:41;;;;;;;0.77;0.77;;;22.40;96.90;;;;;;1879961;75;25248;-59
2023/05/30 11:05:19;;;;;;;0.70;0.70;;;22.40;96.90;;;;;;1905662;74;28638;-58
2023/05/30 11:08:08;;;;;;;0.70;0.70;;;22.40;96.90;;;;;;1861634;76;25897;-61
2023/05/30 11:10:58;;;;;;;0.80;0.80;;;22.40;97.00;;;;;;1862606;76;25809;-58
2023/05/30 11:16:25;;;;;;;0.77;0.77;;;22.40;96.90;;;;;;1903886;74;28172;-59
2023/05/30 11:22:07;;;;;;;0.70;0.70;;;22.40;97.00;;;;;;1943044;72;28129;-59
2023/05/30 11:28:16;;;;;;;0.70;0.70;;;22.40;97.00;;;;;;1901243;74;27111;-59
2023/05/30 11:33:54;;;;;;;0.70;0.70;;;22.40;97.00;;;;;;1938508;72;27583;-59
2023/05/30 11:36:42;;;;;;;0.70;0.70;;;22.40;97.00;;;;;;1876243;75;26129;-60
2023/05/30 11:39:32;;;;;;;0.70;0.70;;;22.40;97.00;;;;;;1888999;75;25706;-60
2023/05/30 11:42:21;;;;;;;0.70;0.70;;;22.40;97.00;;;;;;1883022;75;25218;-61
2023/05/30 11:45:13;;;;;;;1.57;0.73;;;22.40;97.10;;;;;;1850874;76;25229;-60
2023/05/30 11:48:06;;;;;;;0.70;0.70;;;22.40;97.10;;;;;;1888372;75;25193;-60
2023/05/30 11:50:56;;;;;;;0.70;0.70;;;22.40;97.10;;;;;;1880931;75;25978;-60
2023/05/30 11:53:47;;;;;;;0.80;0.80;;;22.40;97.10;;;;;;1884876;75;25253;-60
2023/05/30 11:56:35;;;;;;;0.70;0.70;;;22.40;97.10;;;;;;1891353;75;25974;-60
2023/05/30 11:59:25;;;;;;;1.00;0.90;;;22.40;97.10;;;;;;1885418;75;25176;-60
2023/05/30 12:02:13;;;;;;;0.60;0.60;;;22.40;97.10;;;;;;1892281;73;25181;-60
2023/05/30 12:05:03;;;;;;;0.60;0.60;;;22.40;97.10;;;;;;1889952;75;25207;-61
2023/05/30 12:07:52;;;;;;;0.70;0.70;;;22.40;97.00;;;;;;1884984;75;26225;-61
2023/05/30 12:10:41;;;;;;;0.70;0.70;;;22.40;97.10;;;;;;1899617;75;25145;-60
2023/05/30 12:16:10;;;;;;;0.60;0.60;;;22.40;97.20;;;;;;1954648;72;27114;-58
2023/05/30 12:18:59;;;;;;;0.97;0.80;;;22.40;97.10;;;;;;1923768;73;25252;-60
2023/05/30 12:21:47;;;;;;;0.70;0.70;;;22.40;97.10;;;;;;1921581;73;25157;-60
2023/05/30 12:24:37;;;;;;;0.70;0.70;;;22.40;97.10;;;;;;1914895;73;25254;-61
2023/05/30 12:27:27;;;;;;;0.80;0.80;;;22.40;97.10;;;;;;1915293;73;25179;-61
2023/05/30 12:30:18;;;;;;;0.70;0.70;;;22.40;97.10;;;;;;1932147;73;25168;-60
2023/05/30 12:33:17;;;;;;;0.73;0.73;;;22.40;97.10;;;;;;1918755;73;25242;-61
2023/05/30 12:36:07;;;;;;;0.73;0.73;;;22.40;97.10;;;;;;1915642;73;25758;-59
2023/05/30 12:38:58;;;;;;;0.80;0.80;;;22.40;97.10;;;;;;1917884;73;25384;-59
2023/05/30 12:41:46;;;;;;;0.60;0.60;;;22.50;97.20;;;;;;1923768;73;25284;-60
2023/05/30 12:47:26;;;;;;;0.50;0.50;;;22.50;97.20;;;;;;1928837;72;27098;-59
2023/05/30 12:50:15;;;;;;;0.77;0.77;;;22.50;97.20;;;;;;1896839;74;25293;-60
2023/05/30 12:53:04;;;;;;;0.70;0.70;;;22.50;97.20;;;;;;1907354;75;25739;-59
2023/05/30 12:58:32;;;;;;;0.63;0.63;;;22.50;97.10;;;;;;1921854;72;28078;-60
2023/05/30 13:01:20;;;;;;;0.70;0.70;;;22.50;97.10;;;;;;1905285;74;25203;-61
2023/05/30 13:04:09;;;;;;;0.80;0.80;;;22.50;97.20;;;;;;1881899;75;25689;-60
2023/05/30 13:06:58;;;;;;;0.60;0.60;;;22.50;97.20;;;;;;1874230;75;25159;-61
2023/05/30 13:09:47;;;;;;;0.77;0.77;;;22.50;97.10;;;;;;1891933;74;25194;-61
2023/05/30 13:12:35;;;;;;;0.60;0.60;;;22.50;97.10;;;;;;1876848;75;25668;-61
2023/05/30 13:15:24;;;;;;;0.70;0.70;;;22.50;97.10;;;;;;1884585;75;25155;-60
2023/05/30 13:18:12;;;;;;;0.60;0.60;;;22.50;97.10;;;;;;1879608;75;25684;-60
2023/05/30 13:21:00;;;;;;;0.60;0.60;;;22.50;97.10;;;;;;1877747;75;26230;-59
2023/05/30 13:23:48;;;;;;;0.70;0.70;;;22.50;97.10;;;;;;1881974;75;25146;-60
2023/05/30 13:26:37;;;;;;;0.53;0.53;;;22.50;97.00;;;;;;1877204;75;25260;-61
2023/05/30 13:29:26;;;;;;;1.07;0.80;;;22.50;97.10;;;;;;1879955;75;25203;-61
2023/05/30 13:32:14;;;;;;;0.80;0.80;;;22.50;97.10;;;;;;1886955;75;25163;-61
2023/05/30 13:35:02;;;;;;;0.60;0.60;;;22.50;97.10;;;;;;1909862;75;25702;-60
2023/05/30 13:37:51;;;;;;;0.70;0.70;;;22.50;97.00;;;;;;1884400;75;25682;-61
2023/05/30 13:43:19;;;;;;;1.27;0.80;;;22.50;97.10;;;;;;1893254;74;27658;-59
2023/05/30 13:46:08;;;;;;;0.70;0.70;;;22.50;97.00;;;;;;1851992;77;25249;-59
2023/05/30 13:48:59;;;;;;;0.70;0.70;;;22.50;97.00;;;;;;1861066;75;25253;-59
2023/05/30 13:51:48;;;;;;;0.70;0.70;;;22.50;97.00;;;;;;1854354;77;25715;-61
2023/05/30 13:54:40;;;;;;;0.70;0.70;;;22.50;97.00;;;;;;1849217;77;25205;-59
2023/05/30 13:57:26;;;;;;;0.70;0.70;;;22.50;97.10;;;;;;1856690;75;25202;-59
2023/05/30 14:00:17;;;;;;;0.80;0.80;;;22.50;97.00;;;;;;1859464;77;25987;-59
2023/05/30 14:03:06;;;;;;;0.80;0.80;;;22.50;97.10;;;;;;1857870;76;25280;-59
2023/05/30 14:05:55;;;;;;;0.70;0.70;;;22.50;97.10;;;;;;1862718;75;25173;-59
2023/05/30 14:08:45;;;;;;;0.70;0.70;;;22.50;97.10;;;;;;1864218;76;25151;-59
2023/05/30 14:11:35;;;;;;;0.50;0.50;;;22.50;97.10;;;;;;1843565;77;25480;-59
2023/05/30 14:14:24;;;;;;;0.67;0.67;;;22.50;97.10;;;;;;1852474;77;25228;-60
2023/05/30 14:17:13;;;;;;;0.60;0.60;;;22.50;97.10;;;;;;1852884;77;25244;-60
2023/05/30 14:22:39;;;;;;;0.60;0.60;;;22.50;97.10;;;;;;1945517;72;27150;-60
2023/05/30 14:25:28;;;;;;;0.60;0.60;;;22.50;97.10;;;;;;1908284;73;25735;-61
2023/05/30 14:28:17;;;;;;;0.87;0.87;;;22.50;97.10;;;;;;1896346;74;25222;-59
2023/05/30 14:31:08;;;;;;;0.70;0.70;;;22.50;97.10;;;;;;1871850;75;25203;-61
2023/05/30 14:33:56;;;;;;;0.83;0.80;;;22.50;97.10;;;;;;1829013;76;25257;-60
2023/05/30 14:36:45;;;;;;;0.80;0.80;;;22.50;97.10;;;;;;1838777;78;25256;-60
2023/05/30 14:39:33;;;;;;;1.27;0.70;;;22.50;97.10;;;;;;1925112;73;25674;-61
2023/05/30 14:42:21;;;;;;;0.60;0.60;;;22.50;97.10;;;;;;1912671;73;25815;-60
2023/05/30 14:45:11;;;;;;;0.70;0.70;;;22.50;97.10;;;;;;1855533;76;25870;-61
2023/05/30 14:50:37;;;;;;;1.50;0.80;;;22.50;97.10;;;;;;1907868;74;28174;-59
2023/05/30 14:53:28;;;;;;;0.63;0.63;;;22.50;97.10;;;;;;1861854;76;25313;-61
2023/05/30 14:56:16;;;;;;;0.60;0.60;;;22.50;97.20;;;;;;1858795;76;25171;-60
2023/05/30 15:01:43;;;;;;;0.90;0.70;;;22.50;97.10;;;;;;1913183;73;28039;-59
2023/05/30 15:04:32;;;;;;;0.80;0.77;;;22.50;97.10;;;;;;1869290;76;25575;-60
2023/05/30 15:07:20;;;;;;;0.70;0.70;;;22.50;97.10;;;;;;1862412;76;25714;-61
2023/05/30 15:10:10;;;;;;;0.70;0.70;;;22.50;97.10;;;;;;1871074;76;25233;-61
2023/05/30 15:12:59;;;;;;;0.60;0.60;;;22.50;97.10;;;;;;1863504;76;25189;-61
2023/05/30 15:15:47;;;;;;;0.70;0.70;;;22.50;97.10;;;;;;1862657;76;25253;-60
2023/05/30 15:18:35;;;;;;;1.17;0.80;;;22.50;97.10;;;;;;1867362;75;25207;-61
2023/05/30 15:21:24;;;;;;;0.60;0.60;;;22.50;97.10;;;;;;1859102;76;25681;-61
2023/05/30 15:24:12;;;;;;;0.70;0.70;;;22.50;97.10;;;;;;1864362;76;25228;-61
2023/05/30 15:27:00;;;;;;;0.60;0.60;;;22.50;97.10;;;;;;1863076;76;25986;-60
2023/05/30 15:29:49;;;;;;;0.70;0.70;;;22.50;97.20;;;;;;1861770;74;25193;-61
2023/05/30 15:32:37;;;;;;;2.07;0.67;;;22.50;97.10;;;;;;1864316;76;25183;-60
2023/05/30 15:35:26;;;;;;;0.80;0.80;;;22.50;97.10;;;;;;1857139;76;25240;-61
2023/05/30 15:38:15;;;;;;;0.70;0.70;;;22.50;97.10;;;;;;1858797;76;25252;-59
2023/05/30 15:41:03;;;;;;;0.77;0.70;;;22.50;97.10;;;;;;1859872;76;25275;-61
2023/05/30 15:46:30;;;;;;;0.50;0.50;;;22.50;97.20;;;;;;1918596;73;27069;-58
2023/05/30 15:49:18;;;;;;;0.53;0.53;;;22.50;97.20;;;;;;1867424;75;25729;-60
2023/05/30 15:52:08;;;;;;;0.70;0.70;;;22.50;97.20;;;;;;1893700;73;25176;-61
2023/05/30 15:54:57;;;;;;;0.60;0.60;;;22.40;97.20;;;;;;1898147;75;25176;-61
2023/05/30 15:57:45;;;;;;;0.70;0.70;;;22.40;97.20;;;;;;1892185;75;25163;-61
2023/05/30 16:00:33;;;;;;;0.60;0.60;;;22.40;97.20;;;;;;1912926;73;25142;-61
2023/05/30 16:03:22;;;;;;;0.80;0.80;;;22.40;97.20;;;;;;1907515;73;25194;-61
2023/05/30 16:06:10;;;;;;;0.70;0.70;;;22.40;97.20;;;;;;1907738;74;25276;-60
2023/05/30 16:08:59;;;;;;;0.80;0.80;;;22.40;97.20;;;;;;1892083;75;25235;-60
2023/05/30 16:11:47;;;;;;;0.70;0.70;;;22.40;97.20;;;;;;1893604;75;25173;-61
2023/05/30 16:14:36;;;;;;;1.17;0.70;;;22.40;97.20;;;;;;1899008;75;25219;-60
2023/05/30 16:17:24;;;;;;;0.90;0.90;;;22.40;97.20;;;;;;1916542;73;25253;-61
2023/05/30 16:22:50;;;;;;;1.50;0.63;;;22.40;97.20;;;;;;1894681;74;27130;-59
2023/05/30 16:25:39;;;;;;;0.60;0.60;;;22.40;97.30;;;;;;1852604;76;25316;-61
2023/05/30 16:31:08;;;;;;;1.17;0.60;;;22.40;97.20;;;;;;1928163;73;27528;-59
2023/05/30 16:33:56;;;;;;;1.10;0.70;;;22.40;97.30;;;;;;1912064;74;25245;-61
2023/05/30 16:36:45;;;;;;;0.70;0.70;;;22.40;97.20;;;;;;1891183;74;25209;-60
2023/05/30 16:39:33;;;;;;;0.60;0.60;;;22.40;97.30;;;;;;1893587;75;25172;-60
2023/05/30 16:42:22;;;;;;;0.80;0.80;;;22.40;97.30;;;;;;1870924;76;25692;-60